METAR stanice u blizini

 

LYBE - Beograd / Surčin, Srbija
Ažurirano: 22/04/2024 18:00
Vedro
Vedro
 Pravac vetra ISI
Vetar: ISI 13 km/h
Temperatura: 14°C
Tačka rose: 0°C
Vlažnost: 39%
Pritisak: 1017 hPa
Pregled: Vedro
Vidljivost: greater than 10 km
2024/04/22 16:00 LYBE 221600Z 07007KT CAVOK 14/00 Q1017 NOSIG
LYBT - Beograd / Batajnica, Srbija
Ažurirano: 22/04/2024 18:00
Vedro
Vedro
 Pravac vetra I
Vetar: I 7 km/h
Temperatura: 15°C
Tačka rose: 1°C
Vlažnost: 39%
Pritisak: 1017 hPa
Pregled: Vedro
Vidljivost: greater than 10 km
2024/04/22 16:00 LYBT 221600Z 09004KT 010V130 CAVOK 15/01 Q1017 NOSIG
LYVR - Vršac, Srbija
Ažurirano: 22/04/2024 18:00
Vedro
Vedro
 Pravac vetra SSI
Vetar: SSI 6 km/h
Temperatura: 14°C
Tačka rose: 1°C
Vlažnost: 41%
Pritisak: 1018 hPa
Pregled: Vedro
Vidljivost: greater than 10 km
2024/04/22 16:00 LYVR 221600Z AUTO 03003KT 360V070 CAVOK 14/01 Q1018
 
LYKV - Lađevci, Srbija
Ažurirano: 22/04/2024 18:00
Few Clouds
Few Clouds
 Pravac vetra ISI
Vetar: ISI 13 km/h
Temperatura: 15°C
Tačka rose: 1°C
Vlažnost: 39%
Pritisak: 1015 hPa
Oblaci: Few Clouds
Vidljivost: 10 km
Cloud details: Few Clouds 1615 m
2024/04/22 16:00 LYKV 221600Z 06007KT 020V090 9999 FEW053 15/01 Q1015 NOSIG
LYNI - Niš, Srbija
Ažurirano: 22/04/2024 18:00
Vedro
Vedro
 Pravac vetra S
Vetar: S 11 km/h
Temperatura: 16°C
Tačka rose: 3°C
Vlažnost: 42%
Pritisak: 1016 hPa
Pregled: Vedro
Vidljivost: greater than 10 km
2024/04/22 16:00 LYNI 221600Z 35006KT CAVOK 16/03 Q1016 NOSIG
BKPR - Priština, Srbija
Ažurirano: 22/04/2024 18:30
Partly Cloudy
Partly Cloudy
 Pravac vetra IJI
Vetar: IJI 15 km/h
Temperatura: 15°C
Tačka rose: 4°C
Vlažnost: 48%
Pritisak: 1015 hPa
Oblaci: Partly Cloudy
Vidljivost: 10 km
Cloud details: Partly Cloudy 1524 m
2024/04/22 16:30 BKPR 221630Z 12008KT 9999 SCT050 15/04 Q1015 NOSIG
 
LHPP - Pecs / Pogany, Hungary
Ažurirano: 22/04/2024 17:45
Few Clouds
Few Clouds
 Pravac vetra I
Vetar: I 15 km/h
Temperatura: 12°C
Tačka rose: 1°C
Vlažnost: 47%
Pritisak: 1017 hPa
Oblaci: Few Clouds
Vidljivost: 10 km
Cloud details: Few Clouds 1463 m
2024/04/22 15:45 LHPP 221545Z AUTO 08008KT 050V140 9999 FEW048 12/01 Q1017
LHUD - Szeged, Hungary
Ažurirano: 04/07/2019 01:45
NOT Current
Vedro
Vedro
 Pravac vetra S
Vetar: S 7 km/h
Temperatura: 18°C
Tačka rose: 13°C
Vlažnost: 73%
Pritisak: 1019 hPa
Pregled: Vedro
Vidljivost: greater than 10 km
2019/07/03 23:45 LHUD 032345Z 35004KT CAVOK 18/13 Q1019
LRTR - Timisoara, Romania
Ažurirano: 22/04/2024 18:00
Few Clouds
Few Clouds
 Pravac vetra SSI
Vetar: SSI 15 km/h
Temperatura: 11°C
Tačka rose: 6°C
Vlažnost: 72%
Pritisak: 1018 hPa
Oblaci: Few Clouds
Vidljivost: 10 km
Cloud details: Few Clouds 1219 m
2024/04/22 16:00 LRTR 221600Z 02008KT 9999 FEW040 11/06 Q1018
 
LRCV - Craiova, Romania
Ažurirano: 22/04/2024 18:00
Vedro
Vedro
 Pravac vetra JZ
Vetar: JZ 11 km/h
Temperatura: 15°C
Tačka rose: 2°C
Vlažnost: 42%
Pritisak: 1017 hPa
Pregled: Vedro
Vidljivost: greater than 10 km
2024/04/22 16:00 LRCV 221600Z 23006KT 200V260 CAVOK 15/02 Q1017
LBSF - Sofia, Bulgaria
Ažurirano: 22/04/2024 18:00
Vedro
Vedro
 Pravac vetra I
Vetar: I 7 km/h
Temperatura: 14°C
Tačka rose: 4°C
Vlažnost: 51%
Pritisak: 1016 hPa
Oblaci: Vedro
Vidljivost: 10 km
2024/04/22 16:00 LBSF 221600Z AUTO 10004KT 070V130 9999 NCD 14/04 Q1016 NOSIG
LWSK - Skoplje, Makedonija
Ažurirano: 22/04/2024 18:20
Few Clouds
Few Clouds
 Pravac vetra JI
Vetar: JI 20 km/h
Temperatura: 17°C
Tačka rose: 7°C
Vlažnost: 52%
Pritisak: 1015 hPa
Oblaci: Few Clouds
Vidljivost: 10 km
Cloud details: Few Clouds 1524 m
2024/04/22 16:20 LWSK 221620Z 13011KT 9999 FEW050 17/07 Q1015 NOSIG
 
LYPG - Podgorica, Crna Gora
Ažurirano: 22/04/2024 18:00
Vedro
Vedro
 Pravac vetra varies
Vetar: varies 4 km/h
Temperatura: 17°C
Tačka rose: 5°C
Vlažnost: 45%
Pritisak: 1013 hPa
Pregled: Vedro
Vidljivost: greater than 10 km
2024/04/22 16:00 LYPG 221600Z VRB02KT CAVOK 17/05 Q1013 NOSIG
LQSA - Sarajevo, Bosna i Hercegovina
Ažurirano: 22/04/2024 18:00
Partly Cloudy
Partly Cloudy
 Pravac vetra I
Vetar: I 7 km/h
Temperatura: 16°C
Tačka rose: 0°C
Vlažnost: 34%
Pritisak: 1013 hPa
Oblaci: Partly Cloudy
Vidljivost: 10 km
Cloud details: Partly Cloudy 1829 m
2024/04/22 16:00 LQSA 221600Z 08004KT 030V160 9999 SCT060 16/00 Q1013 NOSIG
LDOS - Osijek, Hrvatksa
Ažurirano: 22/04/2024 18:00
Vedro
Vedro
 Pravac vetra I
Vetar: I 9 km/h
Temperatura: 13°C
Tačka rose: 0°C
Vlažnost: 41%
Pritisak: 1016 hPa
Pregled: Vedro
Vidljivost: greater than 10 km
2024/04/22 16:00 LDOS 221600Z 09005KT 040V160 CAVOK 13/00 Q1016